createdAt,value
2017-11-26T00:00:23.996Z,5.50
2017-11-26T00:02:50.832Z,5.40
2017-11-26T00:05:18.212Z,5.30
2017-11-26T00:07:45.944Z,5.30
2017-11-26T00:10:12.953Z,5.30
2017-11-26T00:12:39.222Z,5.30
2017-11-26T00:15:05.461Z,5.20
2017-11-26T00:17:32.951Z,5.20
2017-11-26T00:20:00.363Z,5.20
2017-11-26T00:22:27.225Z,5.20
2017-11-26T00:24:55.804Z,5.20
2017-11-26T00:27:22.736Z,5.20
2017-11-26T00:29:50.368Z,5.10
2017-11-26T00:32:17.586Z,5.10
2017-11-26T00:34:44.938Z,5.10
2017-11-26T00:37:12.812Z,5.00
2017-11-26T00:39:40.167Z,5.00
2017-11-26T00:42:07.013Z,5.10
2017-11-26T00:44:34.359Z,5.00
2017-11-26T00:47:02.115Z,5.00
2017-11-26T00:49:29.055Z,5.00
2017-11-26T00:51:55.791Z,4.90
2017-11-26T00:54:22.026Z,4.80
2017-11-26T00:56:55.779Z,4.80
2017-11-26T00:59:22.012Z,4.70
2017-11-26T01:01:48.325Z,4.60
2017-11-26T01:04:15.269Z,4.60
2017-11-26T01:06:42.073Z,4.50
2017-11-26T01:09:08.315Z,4.60
2017-11-26T01:11:34.808Z,4.50
2017-11-26T01:14:01.892Z,4.40
2017-11-26T01:16:28.136Z,4.40
2017-11-26T01:18:54.857Z,4.40
2017-11-26T01:21:21.154Z,4.40
2017-11-26T01:23:48.969Z,4.40
2017-11-26T01:26:16.110Z,4.30
2017-11-26T01:28:42.979Z,4.30
2017-11-26T01:31:09.216Z,4.30
2017-11-26T01:33:36.134Z,4.30
2017-11-26T01:36:03.126Z,4.40
2017-11-26T01:38:30.108Z,4.50
2017-11-26T01:40:56.965Z,4.40
2017-11-26T01:43:23.435Z,4.50
2017-11-26T01:45:50.969Z,4.50
2017-11-26T01:48:18.206Z,4.40
2017-11-26T01:50:44.408Z,4.40
2017-11-26T01:53:11.320Z,4.40
2017-11-26T01:55:37.544Z,4.30
2017-11-26T01:58:04.929Z,4.30
2017-11-26T02:00:31.639Z,4.30
2017-11-26T02:02:59.867Z,4.30
2017-11-26T02:05:27.478Z,4.30
2017-11-26T02:07:55.197Z,4.30
2017-11-26T02:10:21.482Z,4.30
2017-11-26T02:12:47.708Z,4.30
2017-11-26T02:15:15.322Z,4.30
2017-11-26T02:17:41.543Z,4.30
2017-11-26T02:20:08.781Z,4.30
2017-11-26T02:22:35.624Z,4.30
2017-11-26T02:25:02.875Z,4.30
2017-11-26T02:27:29.633Z,4.30
2017-11-26T02:29:55.887Z,4.30
2017-11-26T02:35:23.872Z,4.20
2017-11-26T02:37:50.721Z,4.20
2017-11-26T02:40:17.692Z,4.20
2017-11-26T02:42:43.963Z,4.10
2017-11-26T02:45:11.598Z,4.20
2017-11-26T02:47:38.585Z,4.20
2017-11-26T02:50:06.157Z,4.00
2017-11-26T02:52:32.948Z,4.00
2017-11-26T02:54:59.923Z,4.00
2017-11-26T02:57:28.008Z,4.00
2017-11-26T02:59:54.799Z,4.00
2017-11-26T03:02:21.376Z,4.00
2017-11-26T03:04:49.009Z,3.90
2017-11-26T03:07:15.226Z,3.90
2017-11-26T03:09:41.593Z,3.90
2017-11-26T03:12:08.259Z,3.90
2017-11-26T03:14:35.801Z,3.80
2017-11-26T03:17:02.040Z,3.80
2017-11-26T03:19:29.264Z,3.80
2017-11-26T03:21:55.751Z,3.90
2017-11-26T03:24:24.120Z,3.80
2017-11-26T03:26:51.269Z,3.80
2017-11-26T03:29:19.428Z,3.70
2017-11-26T03:31:46.674Z,3.70
2017-11-26T03:34:13.462Z,3.60
2017-11-26T03:36:40.703Z,3.70
2017-11-26T03:39:06.941Z,3.70
2017-11-26T03:41:33.157Z,3.80
2017-11-26T03:43:59.446Z,3.70
2017-11-26T03:46:27.196Z,3.70
2017-11-26T03:48:53.456Z,3.60
2017-11-26T03:51:21.705Z,3.50
2017-11-26T03:53:48.446Z,3.50
2017-11-26T03:56:15.489Z,3.60
2017-11-26T03:58:41.848Z,3.40
2017-11-26T04:01:09.448Z,3.30
2017-11-26T04:03:35.676Z,3.20
2017-11-26T04:06:02.158Z,3.30
2017-11-26T04:08:29.624Z,3.10
2017-11-26T04:10:57.115Z,3.20
2017-11-26T04:13:23.982Z,3.20
2017-11-26T04:15:50.635Z,3.30
2017-11-26T04:18:17.675Z,3.20
2017-11-26T04:20:43.965Z,3.20
2017-11-26T04:23:11.324Z,3.20
2017-11-26T04:25:38.327Z,3.20
2017-11-26T04:28:04.538Z,3.20
2017-11-26T04:30:30.780Z,3.20
2017-11-26T04:32:57.566Z,3.20
2017-11-26T04:35:23.884Z,3.10
2017-11-26T04:37:51.281Z,3.30
2017-11-26T04:40:18.895Z,3.20
2017-11-26T04:42:46.037Z,3.30
2017-11-26T04:45:13.603Z,3.30
2017-11-26T04:47:41.120Z,3.30
2017-11-26T04:50:07.492Z,3.30
2017-11-26T04:52:34.448Z,3.30
2017-11-26T04:55:01.322Z,3.30
2017-11-26T04:57:28.473Z,3.30
2017-11-26T04:59:55.355Z,3.30
2017-11-26T05:02:21.806Z,3.30
2017-11-26T05:04:48.041Z,3.30
2017-11-26T05:07:14.779Z,3.20
2017-11-26T05:09:41.573Z,3.20
2017-11-26T05:12:08.449Z,3.10
2017-11-26T05:14:36.106Z,3.00
2017-11-26T05:17:03.603Z,3.10
2017-11-26T05:19:29.816Z,3.10
2017-11-26T05:21:56.058Z,3.10
2017-11-26T05:24:22.824Z,3.10
2017-11-26T05:26:49.072Z,3.10
2017-11-26T05:29:15.269Z,3.20
2017-11-26T05:31:41.785Z,3.10
2017-11-26T05:34:08.812Z,3.10
2017-11-26T05:36:35.996Z,3.10
2017-11-26T05:39:02.233Z,3.10
2017-11-26T05:41:28.777Z,3.10
2017-11-26T05:43:55.806Z,3.20
2017-11-26T05:46:22.031Z,3.10
2017-11-26T05:48:49.197Z,3.20
2017-11-26T05:51:16.719Z,3.30
2017-11-26T05:53:43.278Z,3.20
2017-11-26T05:56:09.952Z,3.30
2017-11-26T05:58:37.660Z,3.40
2017-11-26T06:01:04.544Z,3.40
2017-11-26T06:03:30.737Z,3.40
2017-11-26T06:06:04.164Z,3.40
2017-11-26T06:08:30.954Z,3.50
2017-11-26T06:10:58.068Z,3.40
2017-11-26T06:13:24.793Z,3.40
2017-11-26T06:15:52.002Z,3.50
2017-11-26T06:18:18.796Z,3.50
2017-11-26T06:20:45.539Z,3.50
2017-11-26T06:23:12.282Z,3.60
2017-11-26T06:25:38.517Z,3.60
2017-11-26T06:28:05.666Z,3.60
2017-11-26T06:30:32.931Z,3.50
2017-11-26T06:32:59.929Z,3.40
2017-11-26T06:35:27.015Z,3.40
2017-11-26T06:37:55.012Z,3.50
2017-11-26T06:40:21.309Z,3.50
2017-11-26T06:42:47.504Z,3.50
2017-11-26T06:45:13.711Z,3.50
2017-11-26T06:47:39.923Z,3.50
2017-11-26T06:50:06.164Z,3.50
2017-11-26T06:52:32.959Z,3.50
2017-11-26T06:54:59.216Z,3.60
2017-11-26T06:57:25.639Z,3.60
2017-11-26T06:59:53.236Z,3.60
2017-11-26T07:02:20.504Z,3.60
2017-11-26T07:04:46.729Z,3.70
2017-11-26T07:07:14.462Z,3.60
2017-11-26T07:09:40.701Z,3.70
2017-11-26T07:12:06.931Z,3.80
2017-11-26T07:14:33.663Z,3.80
2017-11-26T07:17:00.679Z,3.70
2017-11-26T07:19:28.041Z,3.60
2017-11-26T07:21:55.637Z,3.50
2017-11-26T07:24:22.212Z,3.50
2017-11-26T07:26:49.203Z,3.40
2017-11-26T07:29:15.483Z,3.30
2017-11-26T07:31:41.977Z,3.40
2017-11-26T07:34:08.209Z,3.20
2017-11-26T07:36:34.766Z,3.20
2017-11-26T07:39:02.593Z,3.10
2017-11-26T07:41:29.852Z,3.20
2017-11-26T07:43:56.081Z,3.10
2017-11-26T07:46:22.837Z,3.10
2017-11-26T07:48:49.032Z,3.10
2017-11-26T07:51:15.296Z,3.10
2017-11-26T07:53:42.983Z,3.10
2017-11-26T07:56:09.178Z,3.10
2017-11-26T07:58:36.017Z,3.10
2017-11-26T08:01:02.502Z,3.10
2017-11-26T08:03:30.002Z,3.00
2017-11-26T08:05:57.267Z,3.00
2017-11-26T08:08:24.007Z,3.00
2017-11-26T08:10:50.196Z,3.00
2017-11-26T08:13:16.788Z,3.00
2017-11-26T08:15:44.366Z,3.00
2017-11-26T08:18:11.584Z,3.00
2017-11-26T08:20:38.302Z,3.00
2017-11-26T08:23:04.505Z,3.10
2017-11-26T08:25:31.631Z,3.10
2017-11-26T08:27:59.571Z,3.40
2017-11-26T08:30:26.362Z,3.40
2017-11-26T08:32:53.880Z,3.60
2017-11-26T08:35:20.431Z,3.60
2017-11-26T08:37:47.442Z,3.60
2017-11-26T08:40:13.891Z,3.60
2017-11-26T08:42:40.945Z,3.70
2017-11-26T08:45:07.219Z,3.70
2017-11-26T08:47:34.133Z,3.70
2017-11-26T08:50:01.349Z,3.70
2017-11-26T08:52:28.046Z,3.60
2017-11-26T08:54:55.426Z,3.60
2017-11-26T08:57:21.717Z,3.70
2017-11-26T08:59:49.346Z,3.70
2017-11-26T09:02:15.843Z,3.70
2017-11-26T09:04:43.559Z,3.80
2017-11-26T09:07:17.052Z,3.80
2017-11-26T09:09:44.004Z,3.80
2017-11-26T09:12:10.429Z,3.80
2017-11-26T09:14:36.764Z,3.90
2017-11-26T09:17:03.403Z,4.10
2017-11-26T09:19:31.251Z,4.10
2017-11-26T09:21:57.684Z,4.00
2017-11-26T09:24:25.986Z,4.00
2017-11-26T09:26:53.346Z,4.10
2017-11-26T09:29:21.001Z,4.10
2017-11-26T09:31:48.326Z,4.00
2017-11-26T09:34:15.422Z,4.00
2017-11-26T09:36:41.655Z,4.00
2017-11-26T09:39:08.431Z,4.00
2017-11-26T09:41:34.983Z,4.10
2017-11-26T09:44:02.527Z,4.00
2017-11-26T09:46:29.791Z,4.00
2017-11-26T09:48:56.488Z,3.90
2017-11-26T09:51:23.747Z,3.90
2017-11-26T09:53:50.989Z,4.00
2017-11-26T09:56:17.183Z,4.10
2017-11-26T09:58:44.072Z,4.20
2017-11-26T10:01:10.544Z,4.30
2017-11-26T10:03:37.456Z,4.40
2017-11-26T10:06:04.223Z,4.50
2017-11-26T10:08:31.005Z,4.70
2017-11-26T10:10:57.994Z,4.70
2017-11-26T10:13:25.004Z,4.40
2017-11-26T10:15:51.244Z,4.40
2017-11-26T10:18:17.500Z,4.30
2017-11-26T10:20:44.353Z,4.20
2017-11-26T10:23:10.939Z,4.00
2017-11-26T10:25:37.974Z,4.00
2017-11-26T10:28:05.032Z,3.80
2017-11-26T10:30:31.304Z,3.80
2017-11-26T10:32:58.161Z,3.80
2017-11-26T10:35:24.633Z,3.70
2017-11-26T10:37:50.869Z,3.70
2017-11-26T10:40:18.861Z,3.70
2017-11-26T10:42:45.953Z,3.80
2017-11-26T10:45:13.218Z,3.80
2017-11-26T10:47:40.410Z,3.70
2017-11-26T10:50:07.647Z,3.70
2017-11-26T10:52:35.328Z,3.60
2017-11-26T10:55:02.918Z,3.70
2017-11-26T10:57:30.158Z,3.80
2017-11-26T10:59:57.334Z,3.90
2017-11-26T11:02:24.819Z,3.80
2017-11-26T11:04:51.581Z,3.80
2017-11-26T11:07:18.666Z,3.90
2017-11-26T11:09:44.915Z,3.90
2017-11-26T11:12:11.919Z,4.00
2017-11-26T11:14:38.214Z,3.90
2017-11-26T11:17:04.773Z,4.00
2017-11-26T11:19:31.903Z,4.10
2017-11-26T11:21:58.230Z,4.10
2017-11-26T11:24:24.656Z,4.10
2017-11-26T11:26:52.151Z,4.20
2017-11-26T11:29:19.238Z,4.20
2017-11-26T11:31:46.242Z,4.20
2017-11-26T11:34:12.986Z,4.20
2017-11-26T11:36:40.227Z,4.20
2017-11-26T11:48:51.540Z,4.20
2017-11-26T11:51:18.678Z,3.80
2017-11-26T11:53:45.822Z,3.80
2017-11-26T11:56:13.518Z,3.90
2017-11-26T11:58:40.307Z,3.90
2017-11-26T12:01:07.895Z,3.90
2017-11-26T12:03:35.605Z,4.00
2017-11-26T12:06:02.479Z,3.90
2017-11-26T12:08:29.695Z,3.90
2017-11-26T12:10:55.996Z,4.00
2017-11-26T12:13:23.138Z,4.00
2017-11-26T12:15:50.886Z,4.00
2017-11-26T12:18:17.173Z,4.00
2017-11-26T12:20:43.461Z,4.10
2017-11-26T12:23:09.977Z,4.10
2017-11-26T12:25:36.940Z,4.10
2017-11-26T12:28:03.183Z,4.10
2017-11-26T12:30:29.893Z,4.10
2017-11-26T12:32:57.139Z,4.10
2017-11-26T12:35:24.170Z,4.10
2017-11-26T12:37:51.372Z,4.10
2017-11-26T12:40:18.139Z,4.20
2017-11-26T12:42:45.871Z,4.20
2017-11-26T12:45:12.266Z,4.20
2017-11-26T12:47:39.232Z,4.30
2017-11-26T12:50:05.612Z,4.30
2017-11-26T12:52:32.377Z,4.30
2017-11-26T12:54:59.970Z,4.20
2017-11-26T12:57:26.308Z,4.10
2017-11-26T12:59:52.591Z,4.20
2017-11-26T13:02:18.832Z,4.20
2017-11-26T13:04:45.910Z,4.20
2017-11-26T13:07:12.703Z,4.10
2017-11-26T13:09:38.973Z,4.20
2017-11-26T13:12:05.264Z,4.30
2017-11-26T13:14:31.482Z,4.30
2017-11-26T13:16:57.990Z,4.30
2017-11-26T13:19:24.345Z,4.40
2017-11-26T13:21:51.581Z,4.50
2017-11-26T13:24:17.836Z,4.50
2017-11-26T13:26:44.091Z,4.50
2017-11-26T13:29:11.436Z,4.60
2017-11-26T13:31:38.408Z,4.60
2017-11-26T13:34:04.629Z,4.60
2017-11-26T13:36:31.483Z,4.60
2017-11-26T13:38:58.017Z,4.60
2017-11-26T13:41:25.371Z,4.70
2017-11-26T13:43:52.405Z,4.70
2017-11-26T13:46:18.979Z,4.70
2017-11-26T13:48:46.305Z,4.60
2017-11-26T13:51:12.667Z,4.60
2017-11-26T13:53:39.073Z,4.60
2017-11-26T13:56:06.209Z,4.50
2017-11-26T13:58:32.655Z,4.50
2017-11-26T14:00:59.693Z,4.60
2017-11-26T14:03:26.542Z,4.60
2017-11-26T14:05:52.849Z,4.60
2017-11-26T14:08:19.997Z,4.60
2017-11-26T14:10:46.945Z,4.60
2017-11-26T14:13:13.224Z,4.60
2017-11-26T14:15:39.573Z,4.70
2017-11-26T14:18:05.826Z,4.70
2017-11-26T14:20:32.793Z,4.60
2017-11-26T14:23:00.056Z,4.60
2017-11-26T14:25:26.394Z,4.70
2017-11-26T14:27:52.812Z,4.60
2017-11-26T14:30:20.078Z,4.60
2017-11-26T14:32:46.352Z,4.60
2017-11-26T14:35:12.626Z,4.50
2017-11-26T14:37:38.900Z,4.50
2017-11-26T14:40:05.205Z,4.60
2017-11-26T14:42:31.650Z,4.60
2017-11-26T14:44:57.927Z,4.60
2017-11-26T14:47:24.360Z,4.60
2017-11-26T14:49:51.692Z,4.60
2017-11-26T14:52:19.832Z,4.50
2017-11-26T14:54:47.413Z,4.50
2017-11-26T14:57:14.272Z,4.40
2017-11-26T14:59:41.346Z,4.30
2017-11-26T15:02:07.693Z,4.30
2017-11-26T15:04:34.077Z,4.10
2017-11-26T15:07:01.138Z,3.80
2017-11-26T15:09:28.141Z,3.70
2017-11-26T15:11:54.401Z,3.70
2017-11-26T15:14:21.481Z,3.50
2017-11-26T15:16:47.784Z,3.50
2017-11-26T15:19:15.130Z,3.40
2017-11-26T15:21:42.789Z,3.40
2017-11-26T15:24:09.877Z,3.30
2017-11-26T15:26:36.180Z,3.30
2017-11-26T15:29:03.166Z,3.40
2017-11-26T15:31:29.571Z,3.40
2017-11-26T15:33:55.891Z,3.40
2017-11-26T15:36:22.176Z,3.60
2017-11-26T15:38:48.451Z,3.60
2017-11-26T15:41:14.845Z,3.60
2017-11-26T15:43:41.120Z,3.60
2017-11-26T15:46:07.437Z,3.30
2017-11-26T15:48:34.563Z,3.50
2017-11-26T15:51:00.955Z,3.50
2017-11-26T15:53:28.786Z,3.50
2017-11-26T15:55:55.817Z,3.60
2017-11-26T15:58:23.287Z,3.50
2017-11-26T16:00:50.567Z,3.50
2017-11-26T16:03:17.610Z,3.60
2017-11-26T16:05:44.076Z,3.60
2017-11-26T16:08:11.227Z,3.70
2017-11-26T16:10:38.213Z,3.70
2017-11-26T16:13:04.633Z,3.70
2017-11-26T16:15:31.665Z,3.70
2017-11-26T16:17:58.361Z,3.70
2017-11-26T16:20:24.859Z,3.70
2017-11-26T16:22:51.101Z,3.80
2017-11-26T16:25:17.620Z,3.80
2017-11-26T16:27:45.719Z,3.70
2017-11-26T16:30:13.157Z,3.60
2017-11-26T16:32:40.382Z,3.70
2017-11-26T16:35:07.494Z,3.60
2017-11-26T16:37:34.238Z,3.60
2017-11-26T16:40:01.034Z,3.60
2017-11-26T16:42:27.557Z,3.60
2017-11-26T16:44:54.890Z,3.60
2017-11-26T16:47:21.241Z,3.60
2017-11-26T16:49:48.353Z,3.60
2017-11-26T16:52:15.216Z,3.50
2017-11-26T16:54:41.633Z,3.50
2017-11-26T16:57:09.365Z,3.50
2017-11-26T16:59:36.104Z,3.40
2017-11-26T17:02:03.884Z,3.40
2017-11-26T17:04:30.275Z,3.50
2017-11-26T17:06:57.846Z,3.40
2017-11-26T17:09:24.736Z,3.40
2017-11-26T17:11:51.201Z,3.40
2017-11-26T17:14:18.866Z,3.30
2017-11-26T17:16:45.978Z,3.30
2017-11-26T17:19:12.928Z,3.30
2017-11-26T17:21:39.969Z,3.30
2017-11-26T17:24:06.230Z,3.20
2017-11-26T17:26:33.780Z,3.20
2017-11-26T17:29:01.323Z,3.10
2017-11-26T17:31:27.673Z,3.10
2017-11-26T17:33:55.281Z,3.10
2017-11-26T17:36:22.080Z,3.00
2017-11-26T17:38:49.489Z,3.00
2017-11-26T17:41:17.086Z,3.10
2017-11-26T17:43:43.469Z,3.00
2017-11-26T17:46:10.336Z,3.00
2017-11-26T17:48:37.985Z,3.10
2017-11-26T17:51:04.273Z,3.10
2017-11-26T17:53:31.229Z,3.20
2017-11-26T17:55:57.652Z,3.20
2017-11-26T17:58:24.549Z,3.30
2017-11-26T18:00:50.988Z,3.40
2017-11-26T18:03:17.240Z,3.40
2017-11-26T18:05:44.214Z,3.20
2017-11-26T18:08:11.718Z,3.20
2017-11-26T18:10:38.535Z,3.20
2017-11-26T18:13:04.737Z,3.20
2017-11-26T18:15:31.084Z,3.20
2017-11-26T18:17:57.986Z,3.20
2017-11-26T18:20:26.504Z,3.20
2017-11-26T18:22:53.744Z,3.20
2017-11-26T18:25:20.651Z,3.20
2017-11-26T18:27:48.354Z,3.20
2017-11-26T18:30:15.346Z,3.20
2017-11-26T18:32:43.087Z,3.20
2017-11-26T18:35:09.316Z,3.20
2017-11-26T18:37:36.224Z,3.20
2017-11-26T18:40:03.063Z,3.30
2017-11-26T18:42:29.330Z,3.30
2017-11-26T18:44:56.570Z,3.30
2017-11-26T18:47:23.093Z,3.30
2017-11-26T18:49:50.062Z,3.30
2017-11-26T18:52:16.283Z,3.40
2017-11-26T18:54:43.651Z,3.30
2017-11-26T18:57:11.180Z,3.40
2017-11-26T18:59:37.930Z,3.30
2017-11-26T19:02:05.164Z,3.40
2017-11-26T19:04:31.596Z,3.40
2017-11-26T19:06:59.036Z,3.40
2017-11-26T19:09:26.380Z,3.30
2017-11-26T19:11:54.013Z,3.40
2017-11-26T19:14:21.226Z,3.30
2017-11-26T19:16:48.171Z,3.40
2017-11-26T19:19:15.248Z,3.40
2017-11-26T19:21:41.500Z,3.30
2017-11-26T19:24:07.863Z,3.30
2017-11-26T19:26:34.761Z,3.40
2017-11-26T19:29:01.978Z,3.30
2017-11-26T19:31:28.795Z,3.40
2017-11-26T19:33:56.336Z,3.40
2017-11-26T19:36:24.359Z,3.40
2017-11-26T19:38:51.165Z,3.40
2017-11-26T19:51:03.842Z,3.20
2017-11-26T19:53:30.188Z,3.20
2017-11-26T19:55:57.532Z,3.20
2017-11-26T19:58:24.316Z,3.10
2017-11-26T20:00:50.668Z,3.10
2017-11-26T20:03:16.938Z,3.20
2017-11-26T20:05:43.232Z,3.20
2017-11-26T20:08:09.650Z,3.30
2017-11-26T20:10:37.102Z,3.40
2017-11-26T20:13:04.154Z,3.40
2017-11-26T20:15:31.154Z,3.30
2017-11-26T20:17:58.423Z,3.40
2017-11-26T20:20:24.670Z,3.40
2017-11-26T20:22:50.921Z,3.40
2017-11-26T20:25:17.225Z,3.30
2017-11-26T20:27:43.473Z,3.30
2017-11-26T20:30:10.306Z,3.30
2017-11-26T20:32:37.273Z,3.40
2017-11-26T20:35:04.957Z,3.40
2017-11-26T20:37:31.495Z,3.40
2017-11-26T20:39:58.297Z,3.40
2017-11-26T20:42:25.037Z,3.40
2017-11-26T20:44:51.390Z,3.40
2017-11-26T20:47:18.363Z,3.40
2017-11-26T20:49:44.668Z,3.40
2017-11-26T20:52:11.874Z,3.40
2017-11-26T20:54:38.200Z,3.40
2017-11-26T20:57:04.766Z,3.40
2017-11-26T20:59:31.645Z,3.40
2017-11-26T21:01:57.894Z,3.40
2017-11-26T21:04:24.449Z,3.40
2017-11-26T21:06:50.721Z,3.40
2017-11-26T21:09:17.777Z,3.30
2017-11-26T21:11:44.022Z,3.30
2017-11-26T21:14:11.117Z,3.30
2017-11-26T21:16:39.151Z,3.20
2017-11-26T21:19:06.431Z,3.20
2017-11-26T21:21:34.137Z,3.20
2017-11-26T21:24:00.790Z,3.20
2017-11-26T21:26:27.864Z,3.10
2017-11-26T21:28:54.282Z,3.10
2017-11-26T21:31:21.154Z,3.10
2017-11-26T21:33:48.015Z,3.10
2017-11-26T21:36:14.265Z,3.10
2017-11-26T21:38:41.235Z,3.00
2017-11-26T21:41:07.481Z,3.00
2017-11-26T21:43:34.110Z,3.00
2017-11-26T21:46:01.575Z,3.00
2017-11-26T21:48:28.445Z,3.00
2017-11-26T21:50:55.185Z,3.00
2017-11-26T21:53:21.427Z,3.00
2017-11-26T21:55:48.919Z,3.00
2017-11-26T21:58:16.161Z,2.90
2017-11-26T22:00:42.923Z,3.00
2017-11-26T22:03:09.705Z,3.00
2017-11-26T22:05:36.486Z,3.10
2017-11-26T22:08:02.983Z,3.10
2017-11-26T22:10:30.471Z,3.10
2017-11-26T22:12:57.109Z,3.10
2017-11-26T22:15:23.312Z,3.10
2017-11-26T22:17:50.277Z,3.20
2017-11-26T22:20:17.039Z,3.10
2017-11-26T22:22:44.281Z,3.20
2017-11-26T22:25:11.523Z,3.20
2017-11-26T22:27:37.808Z,3.20
2017-11-26T22:30:04.016Z,3.30
2017-11-26T22:32:32.037Z,3.30
2017-11-26T22:34:59.591Z,3.20
2017-11-26T22:37:26.782Z,3.30
2017-11-26T22:39:53.812Z,3.30
2017-11-26T22:42:20.112Z,3.30
2017-11-26T22:44:47.068Z,3.30
2017-11-26T22:47:14.408Z,3.30
2017-11-26T22:49:41.544Z,3.30
2017-11-26T22:52:07.761Z,3.30
2017-11-26T22:54:34.156Z,3.40
2017-11-26T22:57:02.168Z,3.30
2017-11-26T22:59:28.911Z,3.30
2017-11-26T23:01:56.451Z,3.40
2017-11-26T23:04:23.527Z,3.40
2017-11-26T23:09:54.247Z,3.30
2017-11-26T23:12:28.240Z,3.30
2017-11-26T23:14:56.719Z,3.30
2017-11-26T23:17:24.371Z,3.30
2017-11-26T23:19:52.020Z,3.30
2017-11-26T23:22:19.579Z,3.30
2017-11-26T23:24:48.079Z,3.40
2017-11-26T23:27:15.018Z,3.40
2017-11-26T23:29:43.476Z,3.50
2017-11-26T23:32:10.495Z,3.40
2017-11-26T23:34:37.794Z,3.50
2017-11-26T23:37:04.192Z,3.40
2017-11-26T23:39:32.370Z,3.50
2017-11-26T23:41:58.688Z,3.50
2017-11-26T23:44:24.953Z,3.50
2017-11-26T23:46:51.177Z,3.50
2017-11-26T23:49:18.385Z,3.40
2017-11-26T23:51:45.078Z,3.40
2017-11-26T23:54:13.109Z,3.40
2017-11-26T23:56:49.615Z,3.50
2017-11-26T23:59:17.564Z,3.50
